VLG1AC LEZL-GMMI
Flight info
| Callsign | VLG1AC |
|---|---|
| Flight time | N/A |
| Altitude | 33000 |
| Route | CLANA DCT KORNO UN857 IBALU UR724 ESS |
| Aircraft | A20N/M-SDE2E3FGHIRWXY/LB1 |
Departure
| Time | 2026-03-27 13:49 |
|---|---|
| Airport | Seville Airport (LEZL) |
Arrival
| Time | N/A |
|---|---|
| Airport | Essaouira-Mogador Airport (GMMI) |
| Time | Latitude | Longitude | Altitude | Speed | Heading |
|---|---|---|---|---|---|
| 2026-03-27 12:30 | 37.42245 | -5.89914 | 93 ft | 0 kts | 314° |
| 2026-03-27 13:35 | 37.42242 | -5.89910 | 95 ft | 2 kts | 314° |
| 2026-03-27 13:36 | 37.42231 | -5.89895 | 94 ft | 2 kts | 313° |
| 2026-03-27 13:36 | 37.42220 | -5.89880 | 94 ft | 2 kts | 311° |
| 2026-03-27 13:36 | 37.42209 | -5.89864 | 93 ft | 2 kts | 304° |
| 2026-03-27 13:36 | 37.42201 | -5.89845 | 92 ft | 2 kts | 266° |
| 2026-03-27 13:37 | 37.42206 | -5.89831 | 93 ft | 1 kts | 225° |
| 2026-03-27 13:37 | 37.42207 | -5.89829 | 92 ft | 0 kts | 225° |
| 2026-03-27 13:44 | 37.42203 | -5.89835 | 93 ft | 3 kts | 225° |
| 2026-03-27 13:44 | 37.42166 | -5.89882 | 93 ft | 11 kts | 225° |
| 2026-03-27 13:44 | 37.42097 | -5.89967 | 95 ft | 17 kts | 223° |
| 2026-03-27 13:45 | 37.42053 | -5.90091 | 93 ft | 16 kts | 272° |
| 2026-03-27 13:45 | 37.42052 | -5.90248 | 93 ft | 19 kts | 269° |
| 2026-03-27 13:45 | 37.42004 | -5.90303 | 94 ft | 6 kts | 180° |
| 2026-03-27 13:45 | 37.41982 | -5.90336 | 94 ft | 5 kts | 266° |
| 2026-03-27 13:46 | 37.41979 | -5.90406 | 94 ft | 11 kts | 268° |
| 2026-03-27 13:46 | 37.41979 | -5.90522 | 93 ft | 15 kts | 271° |
| 2026-03-27 13:46 | 37.41978 | -5.90674 | 92 ft | 19 kts | 269° |
| 2026-03-27 13:46 | 37.41978 | -5.90788 | 91 ft | 6 kts | 270° |
| 2026-03-27 13:47 | 37.41978 | -5.90861 | 91 ft | 11 kts | 270° |
| 2026-03-27 13:47 | 37.41957 | -5.90971 | 90 ft | 15 kts | 244° |
| 2026-03-27 13:47 | 37.41895 | -5.91105 | 91 ft | 20 kts | 237° |
| 2026-03-27 13:47 | 37.41802 | -5.91172 | 91 ft | 15 kts | 139° |
| 2026-03-27 13:48 | 37.41790 | -5.91096 | 90 ft | 0 kts | 90° |
| 2026-03-27 13:48 | 37.41790 | -5.91095 | 90 ft | 0 kts | 90° |
| 2026-03-27 13:48 | 37.41789 | -5.91033 | 91 ft | 31 kts | 90° |
| 2026-03-27 13:48 | 37.41792 | -5.90464 | 97 ft | 96 kts | 89° |
| 2026-03-27 13:49 | 37.41795 | -5.89404 | 100 ft | 144 kts | 90° |
| 2026-03-27 13:49 | 37.41793 | -5.88096 | 570 ft | 144 kts | 87° |
| 2026-03-27 13:49 | 37.41785 | -5.86804 | 1058 ft | 155 kts | 88° |
| 2026-03-27 13:49 | 37.41790 | -5.85420 | 1584 ft | 161 kts | 88° |
| 2026-03-27 13:50 | 37.41804 | -5.84013 | 2189 ft | 158 kts | 88° |
| 2026-03-27 13:50 | 37.41797 | -5.82637 | 2899 ft | 161 kts | 97° |
| 2026-03-27 13:50 | 37.41243 | -5.81420 | 3477 ft | 175 kts | 138° |
| 2026-03-27 13:50 | 37.40033 | -5.80881 | 3988 ft | 200 kts | 178° |
| 2026-03-27 13:51 | 37.38623 | -5.81363 | 4470 ft | 225 kts | 208° |
| 2026-03-27 13:51 | 37.37332 | -5.82573 | 5172 ft | 239 kts | 221° |
| 2026-03-27 13:51 | 37.36114 | -5.84079 | 5546 ft | 247 kts | 226° |
| 2026-03-27 13:51 | 37.34941 | -5.85663 | 6490 ft | 247 kts | 227° |
| 2026-03-27 13:52 | 37.33757 | -5.87249 | 7370 ft | 251 kts | 226° |
| 2026-03-27 13:52 | 37.32533 | -5.88843 | 8228 ft | 255 kts | 226° |
| 2026-03-27 13:52 | 37.31265 | -5.90457 | 9077 ft | 261 kts | 225° |
| 2026-03-27 13:52 | 37.29873 | -5.92013 | 9604 ft | 282 kts | 220° |
| 2026-03-27 13:53 | 37.28293 | -5.93668 | 10032 ft | 306 kts | 220° |
| 2026-03-27 13:53 | 37.26588 | -5.95434 | 10456 ft | 328 kts | 220° |
| 2026-03-27 13:53 | 37.24766 | -5.97328 | 10789 ft | 352 kts | 220° |
| 2026-03-27 13:53 | 37.22835 | -5.99337 | 11297 ft | 366 kts | 220° |
| 2026-03-27 13:54 | 37.20867 | -6.01391 | 12152 ft | 370 kts | 220° |
| 2026-03-27 13:54 | 37.18871 | -6.03476 | 12980 ft | 375 kts | 220° |
| 2026-03-27 13:54 | 37.16875 | -6.05559 | 13793 ft | 379 kts | 220° |
| 2026-03-27 13:54 | 37.14842 | -6.07679 | 14577 ft | 382 kts | 220° |
| 2026-03-27 13:55 | 37.12787 | -6.09819 | 15334 ft | 385 kts | 220° |
| 2026-03-27 13:55 | 37.10718 | -6.11973 | 16078 ft | 388 kts | 220° |
| 2026-03-27 13:55 | 37.08656 | -6.14117 | 16818 ft | 391 kts | 220° |
| 2026-03-27 13:55 | 37.06551 | -6.16304 | 17553 ft | 394 kts | 220° |
| 2026-03-27 13:56 | 37.04434 | -6.18504 | 18263 ft | 397 kts | 220° |
| 2026-03-27 13:56 | 37.02288 | -6.20731 | 18885 ft | 401 kts | 220° |
| 2026-03-27 13:56 | 37.00126 | -6.22975 | 19499 ft | 405 kts | 220° |
| 2026-03-27 13:56 | 36.97978 | -6.25203 | 20089 ft | 408 kts | 220° |
| 2026-03-27 13:57 | 36.95775 | -6.27485 | 20690 ft | 412 kts | 220° |
| 2026-03-27 13:57 | 36.93557 | -6.29781 | 21271 ft | 416 kts | 220° |
| 2026-03-27 13:57 | 36.91316 | -6.32098 | 21863 ft | 420 kts | 220° |
| 2026-03-27 13:57 | 36.89056 | -6.34433 | 22415 ft | 424 kts | 220° |
| 2026-03-27 13:58 | 36.86771 | -6.36794 | 22993 ft | 427 kts | 220° |
| 2026-03-27 13:58 | 36.84470 | -6.39167 | 23550 ft | 431 kts | 220° |
| 2026-03-27 13:58 | 36.82146 | -6.41563 | 24031 ft | 435 kts | 220° |
| 2026-03-27 13:58 | 36.79837 | -6.43941 | 24487 ft | 438 kts | 220° |
| 2026-03-27 13:59 | 36.77482 | -6.46364 | 24935 ft | 441 kts | 220° |